Time,TemperatureF,DewpointF,PressureIn,WindDirection,WindDirectionDegrees,WindSpeedMPH,WindSpeedGustMPH,Humidity,HourlyPrecipIn,Conditions,Clouds,dailyrainin,SoftwareType,DateUTC
2013-04-29 00:05:00,53.4,50.5,29.83,SE,135,0.0,0.0,90,0.00,,,-99.99,open2300 version1.11,2013-04-29 04:05:00,
2013-04-29 00:10:00,53.4,50.5,29.83,SE,135,0.0,0.0,90,0.00,,,-99.99,open2300 version1.11,2013-04-29 04:10:00,
2013-04-29 00:20:00,53.4,50.5,29.83,SE,135,0.0,0.0,90,0.00,,,-99.99,open2300 version1.11,2013-04-29 04:20:00,
2013-04-29 00:25:00,53.4,50.5,29.83,SE,135,0.0,0.0,90,0.00,,,-99.99,open2300 version1.11,2013-04-29 04:25:00,
2013-04-29 00:35:00,53.4,50.5,29.83,SE,135,0.0,0.0,90,0.00,,,-99.99,open2300 version1.11,2013-04-29 04:35:00,
2013-04-29 00:40:00,53.4,50.5,29.83,SE,135,0.0,0.0,90,0.00,,,-99.99,open2300 version1.11,2013-04-29 04:40:00,
2013-04-29 00:45:00,53.4,50.5,29.83,SE,135,0.0,0.0,90,0.00,,,-99.99,open2300 version1.11,2013-04-29 04:45:00,
2013-04-29 00:55:00,53.4,50.5,29.83,SE,135,0.0,0.0,90,0.00,,,-99.99,open2300 version1.11,2013-04-29 04:55:00,
2013-04-29 01:05:00,53.4,50.2,29.83,SE,135,0.0,0.0,89,0.00,,,-99.99,open2300 version1.11,2013-04-29 05:05:00,
2013-04-29 01:10:00,53.4,50.2,29.83,SE,135,0.0,0.0,89,0.00,,,-99.99,open2300 version1.11,2013-04-29 05:10:00,
2013-04-29 01:15:00,53.4,50.5,29.83,SE,135,0.0,0.0,90,0.00,,,-99.99,open2300 version1.11,2013-04-29 05:15:00,
2013-04-29 01:20:00,53.4,50.5,29.83,SE,135,0.0,0.0,90,0.00,,,-99.99,open2300 version1.11,2013-04-29 05:20:00,
2013-04-29 01:30:00,53.4,50.2,29.83,SE,135,0.0,0.0,89,0.00,,,-99.99,open2300 version1.11,2013-04-29 05:30:00,
2013-04-29 01:40:00,53.4,50.5,29.83,SE,135,0.0,0.0,90,0.00,,,-99.99,open2300 version1.11,2013-04-29 05:40:00,
2013-04-29 01:50:00,53.4,50.5,29.84,SE,135,0.0,0.0,90,0.00,,,-99.99,open2300 version1.11,2013-04-29 05:50:00,
2013-04-29 02:00:00,53.2,50.4,29.84,SE,135,0.0,0.0,90,0.00,,,-99.99,open2300 version1.11,2013-04-29 06:00:00,
2013-04-29 02:05:00,53.2,50.4,29.84,SE,135,0.0,0.0,90,0.00,,,-99.99,open2300 version1.11,2013-04-29 06:05:00,
2013-04-29 02:15:00,53.4,50.5,29.83,SE,135,0.0,0.0,90,0.00,,,-99.99,open2300 version1.11,2013-04-29 06:15:00,
2013-04-29 02:20:00,53.4,50.5,29.84,SE,135,0.0,0.0,90,0.00,,,-99.99,open2300 version1.11,2013-04-29 06:20:00,
2013-04-29 02:25:00,53.2,50.4,29.84,SE,135,0.0,0.0,90,0.00,,,-99.99,open2300 version1.11,2013-04-29 06:25:00,
2013-04-29 02:35:00,53.4,50.5,29.83,SE,135,0.0,0.0,90,0.00,,,-99.99,open2300 version1.11,2013-04-29 06:35:00,
2013-04-29 02:45:00,53.4,50.5,29.84,SE,135,0.0,0.0,90,0.00,,,-99.99,open2300 version1.11,2013-04-29 06:45:00,
2013-04-29 02:55:00,53.2,50.4,29.84,SE,135,0.0,0.0,90,0.00,,,-99.99,open2300 version1.11,2013-04-29 06:55:00,
2013-04-29 03:00:00,53.2,50.4,29.83,SE,135,0.0,0.0,90,0.00,,,-99.99,open2300 version1.11,2013-04-29 07:00:00,
2013-04-29 03:05:00,53.2,50.4,29.84,SE,135,0.0,0.0,90,0.00,,,-99.99,open2300 version1.11,2013-04-29 07:05:00,
2013-04-29 03:15:00,53.2,50.4,29.83,SE,135,0.0,0.0,90,0.00,,,-99.99,open2300 version1.11,2013-04-29 07:15:00,
2013-04-29 03:20:00,53.2,50.4,29.84,SE,135,0.0,0.0,90,0.00,,,-99.99,open2300 version1.11,2013-04-29 07:20:00,
2013-04-29 03:25:00,53.2,50.4,29.83,SE,135,0.0,0.0,90,0.00,,,-99.99,open2300 version1.11,2013-04-29 07:25:00,
2013-04-29 03:30:00,53.2,50.4,29.83,SE,135,0.0,0.0,90,0.00,,,-99.99,open2300 version1.11,2013-04-29 07:30:00,
2013-04-29 03:35:00,53.2,50.4,29.84,SE,135,0.0,0.0,90,0.00,,,-99.99,open2300 version1.11,2013-04-29 07:35:00,
2013-04-29 03:45:00,53.2,50.4,29.84,SE,135,0.0,0.0,90,0.00,,,-99.99,open2300 version1.11,2013-04-29 07:45:00,
2013-04-29 03:50:00,53.2,50.4,29.84,SE,135,0.0,0.0,90,0.00,,,-99.99,open2300 version1.11,2013-04-29 07:50:00,
2013-04-29 03:55:00,53.2,50.4,29.84,SE,135,0.0,0.0,90,0.00,,,-99.99,open2300 version1.11,2013-04-29 07:55:00,
2013-04-29 04:00:00,53.2,50.4,29.84,SE,135,0.0,0.0,90,0.00,,,-99.99,open2300 version1.11,2013-04-29 08:00:00,
2013-04-29 04:05:00,53.4,50.5,29.84,SE,135,0.0,0.0,90,0.00,,,-99.99,open2300 version1.11,2013-04-29 08:05:00,
2013-04-29 04:10:00,53.2,50.4,29.84,SE,135,0.0,0.0,90,0.00,,,-99.99,open2300 version1.11,2013-04-29 08:10:00,
2013-04-29 04:20:00,53.4,50.5,29.84,SE,135,0.0,0.0,90,0.00,,,-99.99,open2300 version1.11,2013-04-29 08:20:00,
2013-04-29 04:25:00,53.2,50.4,29.84,SE,135,0.0,0.0,90,0.00,,,-99.99,open2300 version1.11,2013-04-29 08:25:00,
2013-04-29 04:35:00,53.4,50.5,29.84,SE,135,0.0,0.0,90,0.00,,,-99.99,open2300 version1.11,2013-04-29 08:35:00,
2013-04-29 04:40:00,53.2,50.4,29.85,SE,135,0.0,0.0,90,0.00,,,-99.99,open2300 version1.11,2013-04-29 08:40:00,
2013-04-29 04:50:00,53.2,50.4,29.85,SE,135,0.0,0.0,90,0.00,,,-99.99,open2300 version1.11,2013-04-29 08:50:00,
2013-04-29 05:00:00,53.2,50.4,29.85,SE,135,0.0,0.0,90,0.00,,,-99.99,open2300 version1.11,2013-04-29 09:00:00,
2013-04-29 05:10:00,53.2,50.4,29.86,SE,135,0.0,0.0,90,0.00,,,-99.99,open2300 version1.11,2013-04-29 09:10:00,
2013-04-29 05:15:00,53.2,50.4,29.86,SE,135,0.0,0.0,90,0.00,,,-99.99,open2300 version1.11,2013-04-29 09:15:00,
2013-04-29 05:20:00,53.2,50.4,29.86,SE,135,0.0,0.0,90,0.00,,,-99.99,open2300 version1.11,2013-04-29 09:20:00,
2013-04-29 05:25:00,53.2,50.4,29.86,SE,135,0.0,0.0,90,0.00,,,-99.99,open2300 version1.11,2013-04-29 09:25:00,
2013-04-29 05:30:00,53.2,50.4,29.86,SE,135,0.0,0.0,90,0.00,,,-99.99,open2300 version1.11,2013-04-29 09:30:00,
2013-04-29 05:40:00,53.2,50.4,29.86,SE,135,0.0,0.0,90,0.00,,,-99.99,open2300 version1.11,2013-04-29 09:40:00,
2013-04-29 05:50:00,53.2,50.4,29.86,SE,135,0.0,0.0,90,0.00,,,-99.99,open2300 version1.11,2013-04-29 09:50:00,
2013-04-29 06:00:00,53.2,50.4,29.86,SE,135,0.0,0.0,90,0.00,,,-99.99,open2300 version1.11,2013-04-29 10:00:00,
2013-04-29 06:05:00,53.2,50.4,29.87,SE,135,0.0,0.0,90,0.00,,,-99.99,open2300 version1.11,2013-04-29 10:05:00,
2013-04-29 06:15:00,53.2,50.4,29.87,SE,135,0.0,0.0,90,0.00,,,-99.99,open2300 version1.11,2013-04-29 10:15:00,
2013-04-29 06:25:00,53.2,50.4,29.87,SE,135,0.0,0.0,90,0.00,,,-99.99,open2300 version1.11,2013-04-29 10:25:00,
2013-04-29 06:35:00,53.1,50.2,29.87,SE,135,0.0,0.0,90,0.00,,,-99.99,open2300 version1.11,2013-04-29 10:35:00,
2013-04-29 06:40:00,52.9,50.0,29.87,SE,135,0.0,0.0,90,0.00,,,-99.99,open2300 version1.11,2013-04-29 10:40:00,
2013-04-29 06:50:00,52.9,50.0,29.88,SE,135,0.0,0.0,90,0.00,,,-99.99,open2300 version1.11,2013-04-29 10:50:00,
2013-04-29 06:55:00,52.9,50.0,29.88,SE,135,0.0,0.0,90,0.00,,,-99.99,open2300 version1.11,2013-04-29 10:55:00,
2013-04-29 07:00:00,52.9,50.0,29.88,SE,135,0.0,0.0,90,0.00,,,-99.99,open2300 version1.11,2013-04-29 11:00:00,
2013-04-29 07:05:00,53.1,50.2,29.88,SE,135,0.0,0.0,90,0.00,,,-99.99,open2300 version1.11,2013-04-29 11:05:00,
2013-04-29 07:15:00,53.2,50.4,29.88,SE,135,0.0,0.0,90,0.00,,,-99.99,open2300 version1.11,2013-04-29 11:15:00,
2013-04-29 07:20:00,53.2,50.4,29.88,SE,135,0.0,0.0,90,0.00,,,-99.99,open2300 version1.11,2013-04-29 11:20:00,
2013-04-29 07:30:00,53.4,50.5,29.88,SE,135,0.0,0.0,90,0.00,,,-99.99,open2300 version1.11,2013-04-29 11:30:00,
2013-04-29 07:35:00,53.4,50.5,29.89,SE,135,0.0,0.0,90,0.00,,,-99.99,open2300 version1.11,2013-04-29 11:35:00,
2013-04-29 07:40:00,53.4,50.5,29.89,SE,135,0.0,0.0,90,0.00,,,-99.99,open2300 version1.11,2013-04-29 11:40:00,
2013-04-29 07:50:00,53.4,50.5,29.90,SE,135,0.0,0.0,90,0.00,,,-99.99,open2300 version1.11,2013-04-29 11:50:00,
2013-04-29 07:55:00,53.6,50.7,29.90,SE,135,0.0,0.0,90,0.00,,,-99.99,open2300 version1.11,2013-04-29 11:55:00,
2013-04-29 08:05:00,53.8,50.9,29.90,SE,135,0.0,0.0,90,0.00,,,-99.99,open2300 version1.11,2013-04-29 12:05:00,
2013-04-29 08:15:00,53.8,50.9,29.90,SE,135,0.0,0.0,90,0.00,,,-99.99,open2300 version1.11,2013-04-29 12:15:00,
2013-04-29 08:25:00,53.8,50.9,29.91,SE,135,0.0,0.0,90,0.00,,,-99.99,open2300 version1.11,2013-04-29 12:25:00,
2013-04-29 08:30:00,54.0,51.1,29.90,SE,135,0.0,0.0,90,0.00,,,-99.99,open2300 version1.11,2013-04-29 12:30:00,
2013-04-29 08:40:00,54.0,51.1,29.91,SE,135,0.0,0.0,90,0.00,,,-99.99,open2300 version1.11,2013-04-29 12:40:00,
2013-04-29 08:45:00,54.0,51.1,29.91,SE,135,0.0,0.0,90,0.00,,,-99.99,open2300 version1.11,2013-04-29 12:45:00,
2013-04-29 08:55:00,54.3,51.4,29.91,SE,135,0.0,0.0,90,0.00,,,-99.99,open2300 version1.11,2013-04-29 12:55:00,
2013-04-29 09:05:00,54.3,51.4,29.92,SE,135,0.0,0.0,90,0.00,,,-99.99,open2300 version1.11,2013-04-29 13:05:00,
2013-04-29 09:10:00,54.3,51.4,29.92,SE,135,0.0,0.0,90,0.00,,,-99.99,open2300 version1.11,2013-04-29 13:10:00,
2013-04-29 09:15:00,54.5,51.6,29.92,SE,135,0.0,0.0,90,0.00,,,-99.99,open2300 version1.11,2013-04-29 13:15:00,
2013-04-29 09:25:00,54.9,52.0,29.92,SE,135,0.0,0.0,90,0.00,,,-99.99,open2300 version1.11,2013-04-29 13:25:00,
2013-04-29 09:30:00,54.7,51.8,29.92,SE,135,0.0,0.0,90,0.00,,,-99.99,open2300 version1.11,2013-04-29 13:30:00,
2013-04-29 09:35:00,54.9,52.0,29.92,SE,135,0.0,0.0,90,0.00,,,-99.99,open2300 version1.11,2013-04-29 13:35:00,
2013-04-29 09:50:00,55.2,52.3,29.92,SE,135,0.0,0.0,90,0.00,,,-99.99,open2300 version1.11,2013-04-29 13:50:00,
2013-04-29 10:00:00,55.6,52.7,29.92,SE,135,0.0,0.0,90,0.00,,,-99.99,open2300 version1.11,2013-04-29 14:00:00,
2013-04-29 10:10:00,55.6,52.4,29.92,SE,135,0.0,0.0,89,0.00,,,-99.99,open2300 version1.11,2013-04-29 14:10:00,
2013-04-29 10:15:00,55.8,52.6,29.92,SE,135,0.0,0.0,89,0.00,,,-99.99,open2300 version1.11,2013-04-29 14:15:00,
2013-04-29 10:25:00,56.1,52.9,29.93,SE,135,0.0,0.0,89,0.00,,,-99.99,open2300 version1.11,2013-04-29 14:25:00,
2013-04-29 10:30:00,56.1,52.6,29.93,SE,135,0.0,0.0,88,0.00,,,-99.99,open2300 version1.11,2013-04-29 14:30:00,
2013-04-29 10:35:00,56.3,52.8,29.93,SE,135,0.0,0.0,88,0.00,,,-99.99,open2300 version1.11,2013-04-29 14:35:00,
2013-04-29 10:40:00,56.3,52.8,29.93,SE,135,0.0,0.0,88,0.00,,,-99.99,open2300 version1.11,2013-04-29 14:40:00,
2013-04-29 10:45:00,56.5,53.0,29.93,SE,135,0.0,0.0,88,0.00,,,-99.99,open2300 version1.11,2013-04-29 14:45:00,
2013-04-29 10:50:00,56.8,53.3,29.93,SE,135,0.0,0.0,88,0.00,,,-99.99,open2300 version1.11,2013-04-29 14:50:00,
2013-04-29 10:55:00,56.8,53.3,29.93,SE,135,0.0,0.0,88,0.00,,,-99.99,open2300 version1.11,2013-04-29 14:55:00,
2013-04-29 11:00:00,57.2,53.4,29.93,SE,135,0.2,1.8,87,0.00,,,-99.99,open2300 version1.11,2013-04-29 15:00:00,
2013-04-29 11:05:00,57.4,53.5,29.93,SE,135,0.0,0.2,87,0.00,,,-99.99,open2300 version1.11,2013-04-29 15:05:00,
2013-04-29 11:15:00,57.9,53.7,29.92,SE,135,0.0,0.0,86,0.00,,,-99.99,open2300 version1.11,2013-04-29 15:15:00,
2013-04-29 11:20:00,58.3,54.1,29.92,NNE,22,0.4,2.5,86,0.00,,,-99.99,open2300 version1.11,2013-04-29 15:20:00,
2013-04-29 11:25:00,58.8,54.3,29.92,NNE,22,0.1,1.3,85,0.00,,,-99.99,open2300 version1.11,2013-04-29 15:25:00,
2013-04-29 11:30:00,59.2,54.7,29.92,North,0,0.0,0.9,85,0.00,,,-99.99,open2300 version1.11,2013-04-29 15:30:00,
2013-04-29 11:35:00,59.7,54.9,29.92,NNE,22,0.0,1.3,84,0.00,,,-99.99,open2300 version1.11,2013-04-29 15:35:00,
2013-04-29 11:45:00,60.6,55.5,29.92,WNW,292,0.4,3.6,83,0.00,,,-99.99,open2300 version1.11,2013-04-29 15:45:00,
2013-04-29 11:50:00,61.2,55.6,29.92,WNW,303,0.2,1.8,82,0.00,,,-99.99,open2300 version1.11,2013-04-29 15:50:00,
2013-04-29 11:55:00,61.5,55.6,29.92,NNE,22,0.0,0.0,81,0.00,,,-99.99,open2300 version1.11,2013-04-29 15:55:00,
2013-04-29 12:00:00,61.9,55.6,29.92,NE,41,0.2,1.3,80,0.00,,,-99.99,open2300 version1.11,2013-04-29 16:00:00,
2013-04-29 12:05:00,62.2,55.6,29.92,WNW,300,0.1,1.6,79,0.00,,,-99.99,open2300 version1.11,2013-04-29 16:05:00,
2013-04-29 12:15:00,62.8,55.8,29.92,SW,226,0.8,3.6,78,0.00,,,-99.99,open2300 version1.11,2013-04-29 16:15:00,
2013-04-29 12:25:00,63.0,55.2,29.92,NE,45,0.1,0.9,76,0.00,,,-99.99,open2300 version1.11,2013-04-29 16:25:00,
2013-04-29 12:30:00,63.1,55.4,29.92,NE,45,0.2,1.6,76,0.00,,,-99.99,open2300 version1.11,2013-04-29 16:30:00,
2013-04-29 12:35:00,63.3,55.2,29.92,NW,315,0.1,2.0,75,0.00,,,-99.99,open2300 version1.11,2013-04-29 16:35:00,
2013-04-29 12:40:00,63.7,55.6,29.91,West,270,0.6,2.2,75,0.00,,,-99.99,open2300 version1.11,2013-04-29 16:40:00,
2013-04-29 12:45:00,64.0,55.9,29.91,West,270,0.6,2.9,75,0.00,,,-99.99,open2300 version1.11,2013-04-29 16:45:00,
2013-04-29 12:55:00,64.8,55.9,29.91,WNW,284,0.6,2.9,73,0.00,,,-99.99,open2300 version1.11,2013-04-29 16:55:00,
2013-04-29 13:00:00,65.1,56.6,29.91,SE,135,0.8,3.1,74,0.00,,,-99.99,open2300 version1.11,2013-04-29 17:00:00,
2013-04-29 13:10:00,66.4,56.7,29.91,West,260,0.6,2.7,71,0.00,,,-99.99,open2300 version1.11,2013-04-29 17:10:00,
2013-04-29 13:15:00,66.7,56.7,29.91,NNE,25,1.4,3.6,70,0.00,,,-99.99,open2300 version1.11,2013-04-29 17:15:00,
2013-04-29 13:20:00,66.7,56.2,29.91,SE,135,0.6,2.9,69,0.00,,,-99.99,open2300 version1.11,2013-04-29 17:20:00,
2013-04-29 13:25:00,66.7,56.2,29.91,WSW,247,0.7,2.7,69,0.00,,,-99.99,open2300 version1.11,2013-04-29 17:25:00,
2013-04-29 13:30:00,66.7,56.2,29.91,WSW,247,0.0,0.0,69,0.00,,,-99.99,open2300 version1.11,2013-04-29 17:30:00,
2013-04-29 13:40:00,67.3,56.8,29.91,SSE,158,0.4,2.0,69,0.00,,,-99.99,open2300 version1.11,2013-04-29 17:40:00,
2013-04-29 13:45:00,68.2,57.5,29.91,SW,220,1.1,5.1,69,0.00,,,-99.99,open2300 version1.11,2013-04-29 17:45:00,
2013-04-29 13:50:00,68.2,56.8,29.91,SW,225,0.1,0.9,67,0.00,,,-99.99,open2300 version1.11,2013-04-29 17:50:00,
2013-04-29 14:00:00,67.8,56.0,29.90,West,267,0.2,1.6,66,0.00,,,-99.99,open2300 version1.11,2013-04-29 18:00:00,
2013-04-29 14:05:00,67.8,56.0,29.90,WSW,247,0.0,0.9,66,0.00,,,-99.99,open2300 version1.11,2013-04-29 18:05:00,
2013-04-29 14:15:00,67.8,55.1,29.90,NNE,19,0.2,1.8,64,0.00,,,-99.99,open2300 version1.11,2013-04-29 18:15:00,
2013-04-29 14:20:00,67.6,55.4,29.90,NNE,22,0.2,1.3,65,0.00,,,-99.99,open2300 version1.11,2013-04-29 18:20:00,
2013-04-29 14:25:00,67.3,55.1,29.90,NNE,22,0.1,0.9,65,0.00,,,-99.99,open2300 version1.11,2013-04-29 18:25:00,
2013-04-29 14:35:00,67.1,54.9,29.90,NNE,22,0.0,0.0,65,0.00,,,-99.99,open2300 version1.11,2013-04-29 18:35:00,
2013-04-29 14:45:00,67.6,55.4,29.90,NNE,22,0.1,1.6,65,0.00,,,-99.99,open2300 version1.11,2013-04-29 18:45:00,
2013-04-29 14:50:00,68.2,55.9,29.90,NNE,22,0.1,1.1,65,0.00,,,-99.99,open2300 version1.11,2013-04-29 18:50:00,
2013-04-29 14:55:00,69.1,56.8,29.89,NNE,22,0.6,4.7,65,0.00,,,-99.99,open2300 version1.11,2013-04-29 18:55:00,
2013-04-29 15:00:00,70.0,56.4,29.89,SSW,208,0.7,4.0,62,0.00,,,-99.99,open2300 version1.11,2013-04-29 19:00:00,
2013-04-29 15:10:00,69.6,54.2,29.89,North,358,1.0,3.1,58,0.00,,,-99.99,open2300 version1.11,2013-04-29 19:10:00,
2013-04-29 15:15:00,69.4,55.0,29.89,NNE,22,0.0,0.0,60,0.00,,,-99.99,open2300 version1.11,2013-04-29 19:15:00,
2013-04-29 15:20:00,68.9,54.5,29.89,NE,41,0.8,4.0,60,0.00,,,-99.99,open2300 version1.11,2013-04-29 19:20:00,
2013-04-29 15:25:00,68.9,54.9,29.89,East,98,0.7,2.9,61,0.00,,,-99.99,open2300 version1.11,2013-04-29 19:25:00,
2013-04-29 15:30:00,68.7,54.7,29.89,ESE,122,0.6,4.7,61,0.00,,,-99.99,open2300 version1.11,2013-04-29 19:30:00,
2013-04-29 15:35:00,68.9,55.4,29.89,SE,135,0.0,0.7,62,0.00,,,-99.99,open2300 version1.11,2013-04-29 19:35:00,
2013-04-29 15:45:00,69.1,55.1,29.89,SE,135,0.3,2.5,61,0.00,,,-99.99,open2300 version1.11,2013-04-29 19:45:00,
2013-04-29 15:50:00,68.9,55.4,29.89,SE,135,0.5,3.1,62,0.00,,,-99.99,open2300 version1.11,2013-04-29 19:50:00,
2013-04-29 15:55:00,68.9,54.9,29.89,SE,135,0.7,3.4,61,0.00,,,-99.99,open2300 version1.11,2013-04-29 19:55:00,
2013-04-29 16:00:00,69.1,55.1,29.89,SE,135,0.1,1.1,61,0.00,,,-99.99,open2300 version1.11,2013-04-29 20:00:00,
2013-04-29 16:05:00,69.1,55.1,29.89,SE,135,0.2,1.6,61,0.00,,,-99.99,open2300 version1.11,2013-04-29 20:05:00,
2013-04-29 16:15:00,69.1,54.7,29.88,North,0,0.6,4.5,60,0.00,,,-99.99,open2300 version1.11,2013-04-29 20:15:00,
2013-04-29 16:20:00,68.9,54.5,29.89,NW,321,1.5,5.1,60,0.00,,,-99.99,open2300 version1.11,2013-04-29 20:20:00,
2013-04-29 16:25:00,69.1,55.1,29.88,SSW,193,0.4,4.9,61,0.00,,,-99.99,open2300 version1.11,2013-04-29 20:25:00,
2013-04-29 16:30:00,69.1,54.7,29.88,SE,142,0.9,3.4,60,0.00,,,-99.99,open2300 version1.11,2013-04-29 20:30:00,
2013-04-29 16:35:00,68.9,54.9,29.88,SSE,157,0.1,1.1,61,0.00,,,-99.99,open2300 version1.11,2013-04-29 20:35:00,
2013-04-29 16:40:00,68.9,54.9,29.88,SSE,157,0.4,3.4,61,0.00,,,-99.99,open2300 version1.11,2013-04-29 20:40:00,
2013-04-29 16:45:00,69.3,55.3,29.88,SSW,202,0.2,3.8,61,0.00,,,-99.99,open2300 version1.11,2013-04-29 20:45:00,
2013-04-29 16:50:00,69.4,55.0,29.88,SSW,192,0.4,2.9,60,0.00,,,-99.99,open2300 version1.11,2013-04-29 20:50:00,
2013-04-29 16:55:00,69.6,55.2,29.88,South,178,0.6,2.5,60,0.00,,,-99.99,open2300 version1.11,2013-04-29 20:55:00,
2013-04-29 17:00:00,69.6,55.2,29.88,SSW,192,0.2,2.0,60,0.00,,,-99.99,open2300 version1.11,2013-04-29 21:00:00,
2013-04-29 17:05:00,70.0,55.6,29.88,South,180,0.1,1.3,60,0.00,,,-99.99,open2300 version1.11,2013-04-29 21:05:00,
2013-04-29 17:15:00,70.3,55.4,29.88,SSE,168,0.4,5.4,59,0.00,,,-99.99,open2300 version1.11,2013-04-29 21:15:00,
2013-04-29 17:20:00,70.3,55.4,29.88,SSE,165,0.1,1.1,59,0.00,,,-99.99,open2300 version1.11,2013-04-29 21:20:00,
2013-04-29 17:25:00,70.3,54.9,29.87,ESE,106,0.5,3.1,58,0.00,,,-99.99,open2300 version1.11,2013-04-29 21:25:00,
2013-04-29 17:30:00,70.3,54.9,29.87,South,184,0.6,3.1,58,0.00,,,-99.99,open2300 version1.11,2013-04-29 21:30:00,
2013-04-29 17:40:00,70.3,55.4,29.88,SE,138,0.8,6.9,59,0.00,,,-99.99,open2300 version1.11,2013-04-29 21:40:00,
2013-04-29 17:45:00,70.2,54.7,29.88,SE,135,0.6,4.9,58,0.00,,,-99.99,open2300 version1.11,2013-04-29 21:45:00,
2013-04-29 17:50:00,70.0,54.5,29.88,SE,146,1.6,7.4,58,0.00,,,-99.99,open2300 version1.11,2013-04-29 21:50:00,
2013-04-29 18:00:00,69.8,54.9,29.88,SSE,157,0.0,0.9,59,0.00,,,-99.99,open2300 version1.11,2013-04-29 22:00:00,
2013-04-29 18:05:00,70.0,55.1,29.88,SE,129,0.3,3.4,59,0.00,,,-99.99,open2300 version1.11,2013-04-29 22:05:00,
2013-04-29 18:10:00,70.0,55.1,29.88,SE,129,0.6,8.7,59,0.00,,,-99.99,open2300 version1.11,2013-04-29 22:10:00,
2013-04-29 18:15:00,69.6,54.7,29.88,SE,142,0.4,4.2,59,0.00,,,-99.99,open2300 version1.11,2013-04-29 22:15:00,
2013-04-29 18:20:00,69.6,54.7,29.88,ESE,120,0.9,5.4,59,0.00,,,-99.99,open2300 version1.11,2013-04-29 22:20:00,
2013-04-29 18:25:00,69.6,54.7,29.88,SE,128,0.4,2.2,59,0.00,,,-99.99,open2300 version1.11,2013-04-29 22:25:00,
2013-04-29 18:35:00,69.4,54.5,29.88,ESE,117,0.4,4.0,59,0.00,,,-99.99,open2300 version1.11,2013-04-29 22:35:00,
2013-04-29 18:40:00,69.1,54.2,29.89,ESE,114,1.4,6.9,59,0.00,,,-99.99,open2300 version1.11,2013-04-29 22:40:00,
2013-04-29 18:45:00,69.1,54.2,29.88,SE,130,1.4,4.9,59,0.00,,,-99.99,open2300 version1.11,2013-04-29 22:45:00,
2013-04-29 18:50:00,68.9,54.5,29.89,SE,140,1.4,7.8,60,0.00,,,-99.99,open2300 version1.11,2013-04-29 22:50:00,
2013-04-29 18:55:00,68.7,54.3,29.88,SSE,151,0.5,3.4,60,0.00,,,-99.99,open2300 version1.11,2013-04-29 22:55:00,
2013-04-29 19:00:00,68.5,54.1,29.89,NW,326,0.1,1.3,60,0.00,,,-99.99,open2300 version1.11,2013-04-29 23:00:00,
2013-04-29 19:05:00,68.5,54.1,29.89,SSE,147,0.5,4.7,60,0.00,,,-99.99,open2300 version1.11,2013-04-29 23:05:00,
2013-04-29 19:10:00,68.5,54.5,29.89,SSE,159,1.1,6.5,61,0.00,,,-99.99,open2300 version1.11,2013-04-29 23:10:00,
2013-04-29 19:15:00,68.4,54.4,29.89,SSE,157,0.0,0.0,61,0.00,,,-99.99,open2300 version1.11,2013-04-29 23:15:00,
2013-04-29 19:20:00,67.8,53.9,29.89,SSE,157,0.0,1.3,61,0.00,,,-99.99,open2300 version1.11,2013-04-29 23:20:00,
2013-04-29 19:25:00,67.8,53.9,29.89,SE,142,0.6,3.6,61,0.00,,,-99.99,open2300 version1.11,2013-04-29 23:25:00,
2013-04-29 19:30:00,67.8,53.9,29.89,SSE,157,0.3,2.2,61,0.00,,,-99.99,open2300 version1.11,2013-04-29 23:30:00,
2013-04-29 19:35:00,67.6,54.1,29.89,SE,135,0.1,2.5,62,0.00,,,-99.99,open2300 version1.11,2013-04-29 23:35:00,
2013-04-29 19:45:00,67.3,53.8,29.89,SSE,157,0.1,1.3,62,0.00,,,-99.99,open2300 version1.11,2013-04-29 23:45:00,
2013-04-29 19:50:00,67.1,53.6,29.90,SSE,157,0.0,0.0,62,0.00,,,-99.99,open2300 version1.11,2013-04-29 23:50:00,
2013-04-29 19:55:00,66.9,53.5,29.90,SSE,157,0.0,0.0,62,0.00,,,-99.99,open2300 version1.11,2013-04-29 23:55:00,
2013-04-29 20:00:00,66.9,53.9,29.89,SSE,157,0.0,0.7,63,0.00,,,-99.99,open2300 version1.11,2013-04-30 00:00:00,
2013-04-29 20:05:00,66.6,53.5,29.89,SSE,168,0.3,4.9,63,0.00,,,-99.99,open2300 version1.11,2013-04-30 00:05:00,
2013-04-29 20:10:00,66.4,53.4,29.89,SSE,165,0.1,1.8,63,0.00,,,-99.99,open2300 version1.11,2013-04-30 00:10:00,
2013-04-29 20:15:00,66.0,53.0,29.89,SSE,157,0.0,0.0,63,0.00,,,-99.99,open2300 version1.11,2013-04-30 00:15:00,
2013-04-29 20:25:00,65.8,53.3,29.90,SSE,157,0.0,0.0,64,0.00,,,-99.99,open2300 version1.11,2013-04-30 00:25:00,
2013-04-29 20:30:00,65.5,52.9,29.89,SSE,157,0.0,0.0,64,0.00,,,-99.99,open2300 version1.11,2013-04-30 00:30:00,
2013-04-29 20:40:00,64.9,52.8,29.89,SSE,157,0.0,0.0,65,0.00,,,-99.99,open2300 version1.11,2013-04-30 00:40:00,
2013-04-29 20:45:00,64.6,52.5,29.89,SSE,157,0.0,0.0,65,0.00,,,-99.99,open2300 version1.11,2013-04-30 00:45:00,
2013-04-29 20:50:00,64.2,52.6,29.89,SSE,157,0.0,0.0,66,0.00,,,-99.99,open2300 version1.11,2013-04-30 00:50:00,
2013-04-29 20:55:00,63.9,52.2,29.89,SSE,157,0.0,0.9,66,0.00,,,-99.99,open2300 version1.11,2013-04-30 00:55:00,
2013-04-29 21:00:00,63.7,52.5,29.89,SSE,157,0.0,0.9,67,0.00,,,-99.99,open2300 version1.11,2013-04-30 01:00:00,
2013-04-29 21:10:00,63.0,52.2,29.89,SSE,157,0.0,0.0,68,0.00,,,-99.99,open2300 version1.11,2013-04-30 01:10:00,
2013-04-29 21:15:00,62.6,51.9,29.90,SSE,157,0.0,0.0,68,0.00,,,-99.99,open2300 version1.11,2013-04-30 01:15:00,
2013-04-29 21:20:00,62.4,51.7,29.90,SSE,157,0.0,0.0,68,0.00,,,-99.99,open2300 version1.11,2013-04-30 01:20:00,
2013-04-29 21:25:00,62.2,52.0,29.90,SSE,157,0.0,0.7,69,0.00,,,-99.99,open2300 version1.11,2013-04-30 01:25:00,
2013-04-29 21:30:00,61.9,52.0,29.91,SSE,157,0.4,1.8,70,0.00,,,-99.99,open2300 version1.11,2013-04-30 01:30:00,
2013-04-29 21:35:00,61.7,51.9,29.91,SSE,148,0.6,4.7,70,0.00,,,-99.99,open2300 version1.11,2013-04-30 01:35:00,
2013-04-29 21:40:00,61.7,52.2,29.91,SSE,159,0.3,2.5,71,0.00,,,-99.99,open2300 version1.11,2013-04-30 01:40:00,
2013-04-29 21:45:00,61.7,52.2,29.91,SSE,157,0.4,2.7,71,0.00,,,-99.99,open2300 version1.11,2013-04-30 01:45:00,
2013-04-29 21:50:00,61.5,52.1,29.91,SE,144,0.4,1.8,71,0.00,,,-99.99,open2300 version1.11,2013-04-30 01:50:00,
2013-04-29 21:55:00,61.5,52.5,29.91,SE,128,0.3,3.6,72,0.00,,,-99.99,open2300 version1.11,2013-04-30 01:55:00,
2013-04-29 22:05:00,61.3,52.3,29.91,SE,135,0.3,3.1,72,0.00,,,-99.99,open2300 version1.11,2013-04-30 02:05:00,
2013-04-29 22:10:00,61.3,52.6,29.91,SE,135,0.0,0.7,73,0.00,,,-99.99,open2300 version1.11,2013-04-30 02:10:00,
2013-04-29 22:20:00,61.2,52.5,29.92,SSE,150,0.6,4.2,73,0.00,,,-99.99,open2300 version1.11,2013-04-30 02:20:00,
2013-04-29 22:25:00,61.0,52.3,29.92,SE,135,0.2,1.8,73,0.00,,,-99.99,open2300 version1.11,2013-04-30 02:25:00,
2013-04-29 22:35:00,60.8,52.5,29.92,ESE,116,0.4,2.9,74,0.00,,,-99.99,open2300 version1.11,2013-04-30 02:35:00,
2013-04-29 22:40:00,60.6,52.3,29.92,SE,135,0.1,2.9,74,0.00,,,-99.99,open2300 version1.11,2013-04-30 02:40:00,
2013-04-29 22:45:00,60.6,52.3,29.92,SE,128,0.3,3.4,74,0.00,,,-99.99,open2300 version1.11,2013-04-30 02:45:00,
2013-04-29 22:50:00,60.4,52.2,29.92,SE,135,0.5,3.1,74,0.00,,,-99.99,open2300 version1.11,2013-04-30 02:50:00,
2013-04-29 22:55:00,60.4,52.5,29.92,SE,126,0.1,1.1,75,0.00,,,-99.99,open2300 version1.11,2013-04-30 02:55:00,
2013-04-29 23:00:00,60.4,52.5,29.92,East,90,0.0,1.1,75,0.00,,,-99.99,open2300 version1.11,2013-04-30 03:00:00,
2013-04-29 23:05:00,60.3,52.3,29.92,ESE,116,0.3,4.9,75,0.00,,,-99.99,open2300 version1.11,2013-04-30 03:05:00,
2013-04-29 23:10:00,60.1,52.2,29.92,ESE,112,0.1,1.3,75,0.00,,,-99.99,open2300 version1.11,2013-04-30 03:10:00,
2013-04-29 23:15:00,60.1,52.2,29.92,ESE,112,0.0,0.7,75,0.00,,,-99.99,open2300 version1.11,2013-04-30 03:15:00,
2013-04-29 23:25:00,59.9,52.3,29.92,ESE,112,0.2,2.5,76,0.00,,,-99.99,open2300 version1.11,2013-04-30 03:25:00,
2013-04-29 23:30:00,59.7,51.8,29.92,ESE,112,0.1,1.3,75,0.00,,,-99.99,open2300 version1.11,2013-04-30 03:30:00,
2013-04-29 23:35:00,59.7,51.8,29.92,ESE,112,0.0,0.7,75,0.00,,,-99.99,open2300 version1.11,2013-04-30 03:35:00,
2013-04-29 23:40:00,59.7,51.8,29.92,ESE,112,0.0,0.0,75,0.00,,,-99.99,open2300 version1.11,2013-04-30 03:40:00,
2013-04-29 23:45:00,59.5,52.0,29.92,South,191,0.0,0.7,76,0.00,,,-99.99,open2300 version1.11,2013-04-30 03:45:00,
2013-04-29 23:55:00,59.5,52.0,29.92,South,180,0.0,0.0,76,0.00,,,-99.99,open2300 version1.11,2013-04-30 03:55:00,